RYR9XT EPKK-ENTO
Flight info
| Callsign | RYR9XT |
|---|---|
| Flight time | 1h 48m |
| Altitude | 28000 |
| Route | LUMVE L619 ARMEX/N0450F380 L619 ADVAB L617 KOLOB DCT SABAK L997 XENTA Y43 REPKU |
| Aircraft | B38M/M-SDE1FGHILORVWXY/HB1 |
Departure
| Time | 2026-05-06 11:54 |
|---|---|
| Airport | Kraków John Paul II International Airport (EPKK) |
Arrival
| Time | 2026-05-06 13:42 |
|---|---|
| Airport | Sandefjord Airport, Torp (ENTO) |
| Time | Latitude | Longitude | Altitude | Speed | Heading |
|---|---|---|---|---|---|
| 2026-05-06 11:29 | 50.07505 | 19.80271 | 802 ft | 0 kts | 168° |
| 2026-05-06 11:50 | 50.07504 | 19.80271 | 802 ft | 1 kts | 168° |
| 2026-05-06 11:50 | 50.07477 | 19.80280 | 802 ft | 8 kts | 168° |
| 2026-05-06 11:51 | 50.07447 | 19.80351 | 802 ft | 10 kts | 61° |
| 2026-05-06 11:51 | 50.07476 | 19.80383 | 802 ft | 5 kts | 16° |
| 2026-05-06 11:51 | 50.07511 | 19.80397 | 802 ft | 7 kts | 17° |
| 2026-05-06 11:51 | 50.07559 | 19.80419 | 802 ft | 9 kts | 12° |
| 2026-05-06 11:52 | 50.07620 | 19.80412 | 802 ft | 11 kts | 341° |
| 2026-05-06 11:52 | 50.07694 | 19.80386 | 802 ft | 12 kts | 349° |
| 2026-05-06 11:52 | 50.07766 | 19.80364 | 802 ft | 11 kts | 347° |
| 2026-05-06 11:52 | 50.07838 | 19.80338 | 802 ft | 13 kts | 348° |
| 2026-05-06 11:53 | 50.07921 | 19.80311 | 802 ft | 15 kts | 348° |
| 2026-05-06 11:53 | 50.07990 | 19.80288 | 802 ft | 6 kts | 346° |
| 2026-05-06 11:53 | 50.08020 | 19.80248 | 802 ft | 6 kts | 271° |
| 2026-05-06 11:53 | 50.08018 | 19.80229 | 802 ft | 0 kts | 257° |
| 2026-05-06 11:54 | 50.07997 | 19.80089 | 803 ft | 47 kts | 257° |
| 2026-05-06 11:54 | 50.07872 | 19.79196 | 803 ft | 120 kts | 257° |
| 2026-05-06 11:54 | 50.07649 | 19.77638 | 886 ft | 168 kts | 257° |
| 2026-05-06 11:54 | 50.07367 | 19.75832 | 1591 ft | 177 kts | 256° |
| 2026-05-06 11:55 | 50.07102 | 19.73931 | 2359 ft | 186 kts | 258° |
| 2026-05-06 11:55 | 50.06834 | 19.71893 | 3108 ft | 196 kts | 257° |
| 2026-05-06 11:55 | 50.06583 | 19.69788 | 3926 ft | 199 kts | 257° |
| 2026-05-06 11:55 | 50.06328 | 19.67638 | 4680 ft | 206 kts | 255° |
| 2026-05-06 11:56 | 50.05984 | 19.65375 | 5216 ft | 226 kts | 254° |
| 2026-05-06 11:56 | 50.05612 | 19.62896 | 5873 ft | 239 kts | 255° |
| 2026-05-06 11:56 | 50.05246 | 19.60377 | 6789 ft | 241 kts | 255° |
| 2026-05-06 11:56 | 50.04873 | 19.57793 | 7706 ft | 245 kts | 255° |
| 2026-05-06 11:57 | 50.04503 | 19.55196 | 8582 ft | 248 kts | 255° |
| 2026-05-06 11:57 | 50.04133 | 19.52597 | 9415 ft | 251 kts | 255° |
| 2026-05-06 11:57 | 50.03749 | 19.49892 | 10273 ft | 255 kts | 255° |
| 2026-05-06 11:57 | 50.03364 | 19.47189 | 10938 ft | 268 kts | 255° |
| 2026-05-06 11:58 | 50.02948 | 19.44260 | 11358 ft | 287 kts | 256° |
| 2026-05-06 11:58 | 50.02900 | 19.41064 | 11844 ft | 308 kts | 278° |
| 2026-05-06 11:58 | 50.03628 | 19.37836 | 12430 ft | 324 kts | 289° |
| 2026-05-06 11:58 | 50.04516 | 19.34559 | 13025 ft | 334 kts | 289° |
| 2026-05-06 11:59 | 50.05431 | 19.31213 | 13838 ft | 337 kts | 289° |
| 2026-05-06 11:59 | 50.06357 | 19.27847 | 14613 ft | 341 kts | 289° |
| 2026-05-06 11:59 | 50.07302 | 19.24430 | 15389 ft | 345 kts | 290° |
| 2026-05-06 11:59 | 50.08254 | 19.20988 | 16119 ft | 349 kts | 290° |
| 2026-05-06 12:00 | 50.09215 | 19.17508 | 16825 ft | 352 kts | 290° |
| 2026-05-06 12:00 | 50.10187 | 19.13985 | 17516 ft | 355 kts | 290° |
| 2026-05-06 12:00 | 50.11166 | 19.10433 | 18179 ft | 358 kts | 290° |
| 2026-05-06 12:00 | 50.12154 | 19.06845 | 18836 ft | 362 kts | 290° |
| 2026-05-06 12:01 | 50.13145 | 19.03238 | 19462 ft | 365 kts | 290° |
| 2026-05-06 12:01 | 50.14145 | 18.99594 | 20082 ft | 368 kts | 290° |
| 2026-05-06 12:01 | 50.15154 | 18.95912 | 20670 ft | 371 kts | 290° |
| 2026-05-06 12:01 | 50.16169 | 18.92200 | 21239 ft | 374 kts | 290° |
| 2026-05-06 12:02 | 50.17191 | 18.88457 | 21803 ft | 376 kts | 290° |
| 2026-05-06 12:02 | 50.18220 | 18.84686 | 22361 ft | 379 kts | 290° |
| 2026-05-06 12:02 | 50.19254 | 18.80887 | 22883 ft | 382 kts | 290° |
| 2026-05-06 12:02 | 50.20296 | 18.77054 | 23376 ft | 385 kts | 290° |
| 2026-05-06 12:03 | 50.21345 | 18.73186 | 23868 ft | 388 kts | 290° |
| 2026-05-06 12:03 | 50.22592 | 18.69445 | 24337 ft | 394 kts | 304° |
| 2026-05-06 12:03 | 50.24503 | 18.66398 | 24822 ft | 402 kts | 321° |
| 2026-05-06 12:04 | 50.26400 | 18.64638 | 25168 ft | 409 kts | 332° |
| 2026-05-06 12:04 | 50.26503 | 18.64563 | 25185 ft | 409 kts | 333° |
| 2026-05-06 12:04 | 50.27946 | 18.63574 | 25434 ft | 411 kts | 333° |
| 2026-05-06 12:05 | 50.30541 | 18.61790 | 25829 ft | 414 kts | 333° |
| 2026-05-06 12:05 | 50.33234 | 18.59969 | 26245 ft | 417 kts | 333° |
| 2026-05-06 12:05 | 50.35908 | 18.58180 | 26656 ft | 420 kts | 333° |
| 2026-05-06 12:05 | 50.38614 | 18.56377 | 27055 ft | 423 kts | 333° |
| 2026-05-06 12:06 | 50.41293 | 18.54595 | 27462 ft | 424 kts | 333° |
| 2026-05-06 12:06 | 50.44016 | 18.52780 | 27799 ft | 427 kts | 333° |
| 2026-05-06 12:06 | 50.46732 | 18.50969 | 27837 ft | 424 kts | 333° |
| 2026-05-06 12:06 | 50.49438 | 18.49162 | 27819 ft | 423 kts | 333° |
| 2026-05-06 12:07 | 50.52152 | 18.47347 | 27822 ft | 423 kts | 333° |
| 2026-05-06 12:07 | 50.54859 | 18.45536 | 27822 ft | 423 kts | 333° |
| 2026-05-06 12:07 | 50.57438 | 18.43598 | 27806 ft | 417 kts | 322° |
| 2026-05-06 12:07 | 50.59693 | 18.40807 | 27842 ft | 414 kts | 317° |
| 2026-05-06 12:08 | 50.61899 | 18.38043 | 27801 ft | 414 kts | 317° |
| 2026-05-06 12:08 | 50.64137 | 18.35225 | 27817 ft | 415 kts | 317° |
| 2026-05-06 12:08 | 50.66372 | 18.32383 | 27815 ft | 415 kts | 317° |
| 2026-05-06 12:08 | 50.68616 | 18.29518 | 27814 ft | 415 kts | 317° |
| 2026-05-06 12:09 | 50.70853 | 18.26653 | 27813 ft | 415 kts | 316° |
| 2026-05-06 12:09 | 50.73105 | 18.23710 | 27809 ft | 413 kts | 312° |
| 2026-05-06 12:09 | 50.74893 | 18.20318 | 27831 ft | 406 kts | 302° |
| 2026-05-06 12:09 | 50.76613 | 18.16759 | 27788 ft | 408 kts | 303° |
| 2026-05-06 12:10 | 50.78337 | 18.13217 | 27812 ft | 408 kts | 303° |
| 2026-05-06 12:10 | 50.80058 | 18.09649 | 27807 ft | 408 kts | 303° |
| 2026-05-06 12:10 | 50.81770 | 18.06084 | 27804 ft | 407 kts | 303° |
| 2026-05-06 12:10 | 50.83478 | 18.02521 | 27804 ft | 407 kts | 303° |
| 2026-05-06 12:11 | 50.85186 | 17.98951 | 27804 ft | 407 kts | 302° |
| 2026-05-06 12:11 | 50.86893 | 17.95378 | 27804 ft | 407 kts | 302° |
| 2026-05-06 12:11 | 50.88600 | 17.91800 | 27797 ft | 406 kts | 301° |
| 2026-05-06 12:11 | 50.90274 | 17.88287 | 27794 ft | 406 kts | 301° |
| 2026-05-06 12:12 | 50.91976 | 17.84711 | 27787 ft | 406 kts | 301° |
| 2026-05-06 12:12 | 50.93675 | 17.81133 | 27789 ft | 406 kts | 301° |
| 2026-05-06 12:12 | 50.95371 | 17.77560 | 27787 ft | 406 kts | 301° |
| 2026-05-06 12:12 | 50.97060 | 17.73996 | 27787 ft | 406 kts | 301° |
| 2026-05-06 12:13 | 50.98748 | 17.70429 | 27784 ft | 406 kts | 301° |
| 2026-05-06 12:13 | 51.00442 | 17.66843 | 27786 ft | 406 kts | 301° |
| 2026-05-06 12:13 | 51.02134 | 17.63259 | 27784 ft | 406 kts | 301° |
| 2026-05-06 12:13 | 51.03827 | 17.59665 | 27789 ft | 406 kts | 300° |
| 2026-05-06 12:14 | 51.05516 | 17.56077 | 27783 ft | 405 kts | 300° |
| 2026-05-06 12:14 | 51.07205 | 17.52483 | 27777 ft | 405 kts | 300° |
| 2026-05-06 12:14 | 51.08889 | 17.48895 | 27775 ft | 406 kts | 300° |
| 2026-05-06 12:14 | 51.10575 | 17.45297 | 27776 ft | 405 kts | 300° |
| 2026-05-06 12:15 | 51.12258 | 17.41704 | 27779 ft | 405 kts | 300° |
| 2026-05-06 12:15 | 51.13933 | 17.38120 | 27778 ft | 405 kts | 300° |
| 2026-05-06 12:15 | 51.15706 | 17.34626 | 27764 ft | 411 kts | 310° |
| 2026-05-06 12:15 | 51.18044 | 17.31911 | 27767 ft | 424 kts | 327° |
| 2026-05-06 12:16 | 51.20788 | 17.30081 | 27782 ft | 430 kts | 332° |
| 2026-05-06 12:16 | 51.23575 | 17.28326 | 27773 ft | 430 kts | 333° |
| 2026-05-06 12:16 | 51.26328 | 17.26621 | 27778 ft | 430 kts | 333° |
| 2026-05-06 12:16 | 51.29116 | 17.24911 | 27775 ft | 430 kts | 333° |
| 2026-05-06 12:17 | 51.31922 | 17.23196 | 27780 ft | 431 kts | 333° |
| 2026-05-06 12:17 | 51.34721 | 17.21486 | 27777 ft | 431 kts | 333° |
| 2026-05-06 12:17 | 51.37510 | 17.19780 | 27777 ft | 431 kts | 333° |
| 2026-05-06 12:17 | 51.40308 | 17.18067 | 27774 ft | 431 kts | 333° |
| 2026-05-06 12:18 | 51.43112 | 17.16348 | 27780 ft | 431 kts | 333° |
| 2026-05-06 12:18 | 51.45911 | 17.14630 | 27777 ft | 431 kts | 333° |
| 2026-05-06 12:18 | 51.48713 | 17.12908 | 27776 ft | 431 kts | 333° |
| 2026-05-06 12:18 | 51.51510 | 17.11186 | 27776 ft | 431 kts | 333° |
| 2026-05-06 12:19 | 51.54314 | 17.09458 | 27776 ft | 431 kts | 333° |
| 2026-05-06 12:19 | 51.57107 | 17.07735 | 27769 ft | 430 kts | 332° |
| 2026-05-06 12:19 | 51.59891 | 17.06015 | 27767 ft | 430 kts | 332° |
| 2026-05-06 12:19 | 51.62682 | 17.04288 | 27768 ft | 430 kts | 332° |
| 2026-05-06 12:20 | 51.65474 | 17.02558 | 27766 ft | 430 kts | 332° |
| 2026-05-06 12:20 | 51.68268 | 17.00826 | 27765 ft | 430 kts | 332° |
| 2026-05-06 12:20 | 51.71054 | 16.99095 | 27766 ft | 430 kts | 332° |
| 2026-05-06 12:20 | 51.73844 | 16.97360 | 27768 ft | 429 kts | 332° |
| 2026-05-06 12:21 | 51.76632 | 16.95623 | 27768 ft | 429 kts | 332° |
| 2026-05-06 12:21 | 51.79414 | 16.93888 | 27767 ft | 429 kts | 332° |
| 2026-05-06 12:21 | 51.82185 | 16.92158 | 27768 ft | 429 kts | 332° |
| 2026-05-06 12:21 | 51.84968 | 16.90417 | 27764 ft | 429 kts | 332° |
| 2026-05-06 12:22 | 51.87751 | 16.88674 | 27759 ft | 429 kts | 332° |
| 2026-05-06 12:22 | 51.90530 | 16.86933 | 27758 ft | 428 kts | 332° |
| 2026-05-06 12:22 | 51.93306 | 16.85189 | 27758 ft | 428 kts | 332° |
| 2026-05-06 12:22 | 51.96083 | 16.83443 | 27760 ft | 428 kts | 332° |
| 2026-05-06 12:23 | 51.98855 | 16.81697 | 27758 ft | 428 kts | 332° |
| 2026-05-06 12:23 | 52.01630 | 16.79949 | 27756 ft | 428 kts | 332° |
| 2026-05-06 12:23 | 52.04378 | 16.78215 | 27747 ft | 429 kts | 332° |
| 2026-05-06 12:23 | 52.07186 | 16.76440 | 27750 ft | 429 kts | 332° |
| 2026-05-06 12:24 | 52.09929 | 16.74704 | 27749 ft | 429 kts | 332° |
| 2026-05-06 12:24 | 52.12706 | 16.72950 | 27746 ft | 429 kts | 332° |
| 2026-05-06 12:24 | 52.15497 | 16.71218 | 27749 ft | 429 kts | 332° |
| 2026-05-06 12:24 | 52.18285 | 16.69483 | 27748 ft | 429 kts | 332° |
| 2026-05-06 12:25 | 52.21074 | 16.67743 | 27751 ft | 429 kts | 332° |
| 2026-05-06 12:25 | 52.23861 | 16.66003 | 27748 ft | 428 kts | 332° |
| 2026-05-06 12:25 | 52.26643 | 16.64263 | 27747 ft | 428 kts | 332° |
| 2026-05-06 12:25 | 52.29413 | 16.62528 | 27747 ft | 428 kts | 332° |
| 2026-05-06 12:26 | 52.32193 | 16.60785 | 27747 ft | 428 kts | 332° |
| 2026-05-06 12:26 | 52.34971 | 16.59040 | 27750 ft | 428 kts | 332° |
| 2026-05-06 12:26 | 52.37750 | 16.57292 | 27746 ft | 427 kts | 332° |
| 2026-05-06 12:26 | 52.40525 | 16.55544 | 27747 ft | 427 kts | 332° |
| 2026-05-06 12:27 | 52.43300 | 16.53795 | 27749 ft | 428 kts | 332° |
| 2026-05-06 12:27 | 52.46076 | 16.52041 | 27748 ft | 428 kts | 332° |
| 2026-05-06 12:27 | 52.48850 | 16.50288 | 27746 ft | 427 kts | 332° |
| 2026-05-06 12:27 | 52.51624 | 16.48532 | 27748 ft | 427 kts | 332° |
| 2026-05-06 12:28 | 52.54380 | 16.46784 | 27748 ft | 427 kts | 332° |
| 2026-05-06 12:28 | 52.57161 | 16.45018 | 27747 ft | 428 kts | 332° |
| 2026-05-06 12:28 | 52.59929 | 16.43258 | 27747 ft | 428 kts | 332° |
| 2026-05-06 12:28 | 52.62708 | 16.41488 | 27746 ft | 428 kts | 332° |
| 2026-05-06 12:29 | 52.65479 | 16.39722 | 27990 ft | 429 kts | 332° |
| 2026-05-06 12:29 | 52.68264 | 16.37943 | 28406 ft | 431 kts | 332° |
| 2026-05-06 12:29 | 52.71064 | 16.36151 | 28757 ft | 432 kts | 332° |
| 2026-05-06 12:29 | 52.73882 | 16.34343 | 28984 ft | 438 kts | 332° |
| 2026-05-06 12:30 | 52.76712 | 16.32537 | 29449 ft | 437 kts | 332° |
| 2026-05-06 12:30 | 52.79544 | 16.30717 | 29835 ft | 438 kts | 332° |
| 2026-05-06 12:30 | 52.82393 | 16.28885 | 30198 ft | 439 kts | 332° |
| 2026-05-06 12:30 | 52.85251 | 16.27045 | 30523 ft | 442 kts | 332° |
| 2026-05-06 12:31 | 52.88118 | 16.25197 | 30853 ft | 443 kts | 332° |
| 2026-05-06 12:31 | 52.90997 | 16.23339 | 31163 ft | 445 kts | 333° |
| 2026-05-06 12:31 | 52.93891 | 16.21468 | 31456 ft | 448 kts | 333° |
| 2026-05-06 12:31 | 52.96800 | 16.19584 | 31750 ft | 450 kts | 333° |
| 2026-05-06 12:32 | 52.99674 | 16.17721 | 32044 ft | 452 kts | 333° |
| 2026-05-06 12:32 | 53.02605 | 16.15818 | 32345 ft | 453 kts | 333° |
| 2026-05-06 12:32 | 53.05554 | 16.13901 | 32611 ft | 456 kts | 333° |
| 2026-05-06 12:32 | 53.08515 | 16.11973 | 32872 ft | 458 kts | 333° |
| 2026-05-06 12:33 | 53.11483 | 16.10037 | 33158 ft | 460 kts | 333° |
| 2026-05-06 12:33 | 53.14472 | 16.08085 | 33433 ft | 461 kts | 333° |
| 2026-05-06 12:33 | 53.17460 | 16.06131 | 33711 ft | 463 kts | 333° |
| 2026-05-06 12:33 | 53.20464 | 16.04163 | 33973 ft | 464 kts | 334° |
| 2026-05-06 12:34 | 53.23462 | 16.02196 | 34246 ft | 465 kts | 334° |
| 2026-05-06 12:34 | 53.26477 | 16.00215 | 34511 ft | 467 kts | 334° |
| 2026-05-06 12:34 | 53.29503 | 15.98225 | 34778 ft | 468 kts | 334° |
| 2026-05-06 12:34 | 53.32531 | 15.96229 | 35081 ft | 468 kts | 334° |
| 2026-05-06 12:35 | 53.35562 | 15.94229 | 35349 ft | 469 kts | 334° |
| 2026-05-06 12:35 | 53.38591 | 15.92226 | 35602 ft | 469 kts | 334° |
| 2026-05-06 12:35 | 53.41635 | 15.90212 | 35849 ft | 470 kts | 334° |
| 2026-05-06 12:35 | 53.44674 | 15.88197 | 36109 ft | 470 kts | 334° |
| 2026-05-06 12:36 | 53.47701 | 15.86187 | 36346 ft | 470 kts | 334° |
| 2026-05-06 12:36 | 53.49717 | 15.84847 | 36474 ft | 471 kts | 334° |
| 2026-05-06 12:36 | 53.52763 | 15.82820 | 36699 ft | 472 kts | 334° |
| 2026-05-06 12:36 | 53.55817 | 15.80784 | 37029 ft | 469 kts | 334° |
| 2026-05-06 12:37 | 53.58828 | 15.78774 | 37401 ft | 465 kts | 334° |
| 2026-05-06 12:37 | 53.61836 | 15.76763 | 37658 ft | 464 kts | 334° |
| 2026-05-06 12:37 | 53.64829 | 15.74758 | 37805 ft | 464 kts | 334° |
| 2026-05-06 12:37 | 53.67836 | 15.72741 | 37826 ft | 466 kts | 334° |
| 2026-05-06 12:38 | 53.73835 | 15.68708 | 37817 ft | 464 kts | 334° |
| 2026-05-06 12:38 | 53.79822 | 15.64671 | 37816 ft | 464 kts | 334° |
| 2026-05-06 12:39 | 53.85833 | 15.60605 | 37813 ft | 464 kts | 334° |
| 2026-05-06 12:39 | 53.91820 | 15.56542 | 37823 ft | 464 kts | 334° |
| 2026-05-06 12:40 | 53.97816 | 15.52460 | 37831 ft | 465 kts | 334° |
| 2026-05-06 12:40 | 54.03781 | 15.48389 | 37832 ft | 464 kts | 334° |
| 2026-05-06 12:41 | 54.09811 | 15.44259 | 37852 ft | 464 kts | 334° |
| 2026-05-06 12:41 | 54.15752 | 15.40177 | 37858 ft | 464 kts | 334° |
| 2026-05-06 12:42 | 54.21731 | 15.36057 | 37862 ft | 464 kts | 334° |
| 2026-05-06 12:42 | 54.27725 | 15.31914 | 37881 ft | 464 kts | 334° |
| 2026-05-06 12:43 | 54.33703 | 15.27767 | 37884 ft | 464 kts | 334° |
| 2026-05-06 12:43 | 54.39648 | 15.23651 | 37878 ft | 463 kts | 335° |
| 2026-05-06 12:44 | 54.45641 | 15.19593 | 37888 ft | 463 kts | 334° |
| 2026-05-06 12:44 | 54.51631 | 15.15514 | 37889 ft | 463 kts | 334° |
| 2026-05-06 12:45 | 54.57624 | 15.11418 | 37894 ft | 464 kts | 334° |
| 2026-05-06 12:46 | 54.66602 | 15.05260 | 37896 ft | 464 kts | 334° |
| 2026-05-06 12:46 | 54.72596 | 15.01131 | 37901 ft | 463 kts | 334° |
| 2026-05-06 12:47 | 54.78582 | 14.96995 | 37904 ft | 463 kts | 334° |
| 2026-05-06 12:47 | 54.84429 | 14.92479 | 37915 ft | 460 kts | 329° |
| 2026-05-06 12:48 | 54.90111 | 14.87451 | 37905 ft | 460 kts | 328° |
| 2026-05-06 12:48 | 54.95795 | 14.82363 | 37907 ft | 460 kts | 328° |
| 2026-05-06 12:49 | 55.01473 | 14.77262 | 37906 ft | 459 kts | 328° |
| 2026-05-06 12:49 | 55.07140 | 14.72155 | 37916 ft | 460 kts | 328° |
| 2026-05-06 12:50 | 55.12818 | 14.67021 | 37913 ft | 460 kts | 328° |
| 2026-05-06 12:50 | 55.18502 | 14.61865 | 37916 ft | 459 kts | 328° |
| 2026-05-06 12:51 | 55.24165 | 14.56712 | 37916 ft | 459 kts | 328° |
| 2026-05-06 12:51 | 55.29827 | 14.51543 | 37915 ft | 459 kts | 328° |
| 2026-05-06 12:52 | 55.35495 | 14.46351 | 37923 ft | 459 kts | 328° |
| 2026-05-06 12:52 | 55.41105 | 14.41195 | 37915 ft | 459 kts | 328° |
| 2026-05-06 12:53 | 55.46806 | 14.35940 | 37920 ft | 460 kts | 328° |
| 2026-05-06 12:53 | 55.52417 | 14.30751 | 37923 ft | 459 kts | 328° |
| 2026-05-06 12:54 | 55.58072 | 14.25503 | 37926 ft | 459 kts | 328° |
| 2026-05-06 12:54 | 55.63724 | 14.20241 | 37922 ft | 459 kts | 328° |
| 2026-05-06 12:55 | 55.69370 | 14.14969 | 37935 ft | 459 kts | 327° |
| 2026-05-06 12:55 | 55.75005 | 14.09688 | 37935 ft | 459 kts | 327° |
| 2026-05-06 12:56 | 55.80653 | 14.04378 | 37935 ft | 459 kts | 327° |
| 2026-05-06 12:56 | 55.86288 | 13.99061 | 37934 ft | 459 kts | 327° |
| 2026-05-06 12:57 | 55.91926 | 13.93724 | 37931 ft | 458 kts | 327° |
| 2026-05-06 12:57 | 55.97539 | 13.88396 | 37935 ft | 459 kts | 327° |
| 2026-05-06 12:58 | 56.03172 | 13.83028 | 37938 ft | 459 kts | 327° |
| 2026-05-06 12:58 | 56.08803 | 13.77644 | 37945 ft | 459 kts | 327° |
| 2026-05-06 12:59 | 56.14427 | 13.72251 | 37937 ft | 459 kts | 327° |
| 2026-05-06 12:59 | 56.20043 | 13.66846 | 37933 ft | 459 kts | 327° |
| 2026-05-06 13:00 | 56.25662 | 13.61421 | 37931 ft | 458 kts | 327° |
| 2026-05-06 13:00 | 56.31278 | 13.55980 | 37934 ft | 458 kts | 327° |
| 2026-05-06 13:01 | 56.36881 | 13.50533 | 37936 ft | 458 kts | 327° |
| 2026-05-06 13:01 | 56.42432 | 13.45119 | 37933 ft | 457 kts | 326° |
| 2026-05-06 13:02 | 56.48022 | 13.39650 | 37935 ft | 457 kts | 326° |
| 2026-05-06 13:02 | 56.53610 | 13.34162 | 37936 ft | 457 kts | 326° |
| 2026-05-06 13:03 | 56.59190 | 13.28664 | 37936 ft | 456 kts | 326° |
| 2026-05-06 13:03 | 56.64751 | 13.23166 | 37937 ft | 456 kts | 326° |
| 2026-05-06 13:04 | 56.70324 | 13.17639 | 37930 ft | 456 kts | 326° |
| 2026-05-06 13:04 | 56.75895 | 13.12095 | 37935 ft | 455 kts | 326° |
| 2026-05-06 13:05 | 56.81444 | 13.06552 | 37934 ft | 455 kts | 325° |
| 2026-05-06 13:05 | 56.86991 | 13.00993 | 37932 ft | 455 kts | 325° |
| 2026-05-06 13:06 | 56.92536 | 12.95418 | 37932 ft | 455 kts | 325° |
| 2026-05-06 13:06 | 56.98077 | 12.89826 | 37933 ft | 454 kts | 325° |
| 2026-05-06 13:07 | 57.03604 | 12.84230 | 37932 ft | 454 kts | 325° |
| 2026-05-06 13:07 | 57.09106 | 12.78641 | 37929 ft | 454 kts | 325° |
| 2026-05-06 13:08 | 57.14629 | 12.73010 | 37936 ft | 454 kts | 325° |
| 2026-05-06 13:08 | 57.20115 | 12.67400 | 37939 ft | 453 kts | 324° |
| 2026-05-06 13:09 | 57.25620 | 12.61747 | 37930 ft | 453 kts | 324° |
| 2026-05-06 13:09 | 57.31116 | 12.56087 | 37933 ft | 453 kts | 324° |
| 2026-05-06 13:10 | 57.36602 | 12.50416 | 37931 ft | 452 kts | 324° |
| 2026-05-06 13:10 | 57.42086 | 12.44730 | 37932 ft | 452 kts | 324° |
| 2026-05-06 13:11 | 57.47495 | 12.39100 | 37935 ft | 452 kts | 324° |
| 2026-05-06 13:11 | 57.52958 | 12.33396 | 37935 ft | 451 kts | 324° |
| 2026-05-06 13:12 | 57.58419 | 12.27672 | 37937 ft | 450 kts | 324° |
| 2026-05-06 13:12 | 57.63881 | 12.21928 | 37939 ft | 450 kts | 323° |
| 2026-05-06 13:13 | 57.69334 | 12.16176 | 37935 ft | 450 kts | 323° |
| 2026-05-06 13:13 | 57.74770 | 12.10418 | 37729 ft | 449 kts | 323° |
| 2026-05-06 13:13 | 57.77477 | 12.07544 | 36965 ft | 450 kts | 323° |
| 2026-05-06 13:14 | 57.80218 | 12.04628 | 36149 ft | 454 kts | 323° |
| 2026-05-06 13:14 | 57.82938 | 12.01730 | 35567 ft | 452 kts | 322° |
| 2026-05-06 13:14 | 57.85629 | 11.98860 | 35146 ft | 447 kts | 322° |
| 2026-05-06 13:14 | 57.88308 | 11.95998 | 34743 ft | 441 kts | 321° |
| 2026-05-06 13:15 | 57.90965 | 11.93154 | 34253 ft | 438 kts | 321° |
| 2026-05-06 13:15 | 57.93595 | 11.90335 | 33696 ft | 436 kts | 321° |
| 2026-05-06 13:15 | 57.96229 | 11.87507 | 33141 ft | 435 kts | 321° |
| 2026-05-06 13:15 | 57.98851 | 11.84687 | 32635 ft | 433 kts | 321° |
| 2026-05-06 13:16 | 58.01459 | 11.81877 | 32140 ft | 430 kts | 321° |
| 2026-05-06 13:16 | 58.04048 | 11.79083 | 31627 ft | 428 kts | 320° |
| 2026-05-06 13:16 | 58.06626 | 11.76297 | 31130 ft | 425 kts | 320° |
| 2026-05-06 13:16 | 58.09188 | 11.73523 | 30636 ft | 423 kts | 320° |
| 2026-05-06 13:17 | 58.11733 | 11.70763 | 30142 ft | 421 kts | 320° |
| 2026-05-06 13:17 | 58.14258 | 11.68020 | 29665 ft | 419 kts | 320° |
| 2026-05-06 13:17 | 58.16784 | 11.65338 | 29172 ft | 421 kts | 324° |
| 2026-05-06 13:17 | 58.19633 | 11.63614 | 28588 ft | 439 kts | 342° |
| 2026-05-06 13:18 | 58.22625 | 11.62854 | 28187 ft | 431 kts | 342° |
| 2026-05-06 13:18 | 58.25528 | 11.61965 | 27763 ft | 418 kts | 342° |
| 2026-05-06 13:18 | 58.28367 | 11.61081 | 27343 ft | 410 kts | 341° |
| 2026-05-06 13:18 | 58.31172 | 11.60207 | 26908 ft | 408 kts | 342° |
| 2026-05-06 13:19 | 58.33973 | 11.59334 | 26469 ft | 406 kts | 342° |
| 2026-05-06 13:19 | 58.36752 | 11.58468 | 26051 ft | 403 kts | 342° |
| 2026-05-06 13:19 | 58.39474 | 11.57620 | 25632 ft | 395 kts | 341° |
| 2026-05-06 13:19 | 58.42174 | 11.56774 | 25236 ft | 393 kts | 341° |
| 2026-05-06 13:20 | 58.44862 | 11.55931 | 24832 ft | 390 kts | 342° |
| 2026-05-06 13:20 | 58.47534 | 11.55093 | 24442 ft | 388 kts | 342° |
| 2026-05-06 13:20 | 58.50189 | 11.54258 | 24044 ft | 385 kts | 342° |
| 2026-05-06 13:20 | 58.52824 | 11.53430 | 23661 ft | 383 kts | 342° |
| 2026-05-06 13:21 | 58.55425 | 11.52610 | 23271 ft | 381 kts | 342° |
| 2026-05-06 13:21 | 58.58033 | 11.51786 | 22869 ft | 379 kts | 342° |
| 2026-05-06 13:21 | 58.60627 | 11.50965 | 22496 ft | 376 kts | 342° |
| 2026-05-06 13:21 | 58.63191 | 11.50155 | 22110 ft | 374 kts | 342° |
| 2026-05-06 13:22 | 58.65692 | 11.49029 | 21655 ft | 362 kts | 329° |
| 2026-05-06 13:22 | 58.67751 | 11.46531 | 21207 ft | 342 kts | 308° |
| 2026-05-06 13:22 | 58.69130 | 11.43018 | 20881 ft | 323 kts | 290° |
| 2026-05-06 13:22 | 58.69960 | 11.39143 | 20569 ft | 315 kts | 284° |
| 2026-05-06 13:23 | 58.70674 | 11.35130 | 20186 ft | 312 kts | 283° |
| 2026-05-06 13:23 | 58.71098 | 11.32501 | 19948 ft | 309 kts | 282° |
| 2026-05-06 13:23 | 58.71694 | 11.28553 | 19588 ft | 306 kts | 281° |
| 2026-05-06 13:23 | 58.72254 | 11.24628 | 19253 ft | 303 kts | 281° |
| 2026-05-06 13:24 | 58.72795 | 11.20728 | 18901 ft | 300 kts | 281° |
| 2026-05-06 13:24 | 58.73318 | 11.16869 | 18566 ft | 297 kts | 281° |
| 2026-05-06 13:24 | 58.73996 | 11.11788 | 18110 ft | 294 kts | 281° |
| 2026-05-06 13:24 | 58.74425 | 11.08544 | 17824 ft | 292 kts | 281° |
| 2026-05-06 13:25 | 58.74725 | 11.06266 | 17623 ft | 290 kts | 281° |
| 2026-05-06 13:25 | 58.75069 | 11.03640 | 17392 ft | 288 kts | 281° |
| 2026-05-06 13:25 | 58.75370 | 11.01341 | 17189 ft | 286 kts | 281° |
| 2026-05-06 13:25 | 58.75749 | 10.98434 | 16926 ft | 285 kts | 281° |
| 2026-05-06 13:26 | 58.76201 | 10.94967 | 16628 ft | 282 kts | 281° |
| 2026-05-06 13:26 | 58.76518 | 10.92532 | 16416 ft | 280 kts | 281° |
| 2026-05-06 13:26 | 58.76929 | 10.89367 | 16136 ft | 278 kts | 281° |
| 2026-05-06 13:26 | 58.77373 | 10.85935 | 15831 ft | 276 kts | 281° |
| 2026-05-06 13:27 | 58.77815 | 10.82514 | 15528 ft | 274 kts | 281° |
| 2026-05-06 13:27 | 58.78257 | 10.79089 | 15230 ft | 272 kts | 281° |
| 2026-05-06 13:27 | 58.78707 | 10.75591 | 14923 ft | 269 kts | 281° |
| 2026-05-06 13:27 | 58.79154 | 10.72101 | 14614 ft | 268 kts | 281° |
| 2026-05-06 13:28 | 58.79585 | 10.68740 | 14325 ft | 273 kts | 281° |
| 2026-05-06 13:28 | 58.80035 | 10.65229 | 14025 ft | 277 kts | 282° |
| 2026-05-06 13:28 | 58.80834 | 10.61854 | 13686 ft | 284 kts | 304° |
| 2026-05-06 13:28 | 58.82332 | 10.59349 | 13391 ft | 290 kts | 327° |
| 2026-05-06 13:29 | 58.84136 | 10.57571 | 13143 ft | 291 kts | 329° |
| 2026-05-06 13:29 | 58.85928 | 10.55835 | 12857 ft | 292 kts | 329° |
| 2026-05-06 13:29 | 58.87746 | 10.54092 | 12555 ft | 292 kts | 330° |
| 2026-05-06 13:29 | 58.89567 | 10.52357 | 12236 ft | 292 kts | 330° |
| 2026-05-06 13:30 | 58.91390 | 10.50624 | 11934 ft | 292 kts | 330° |
| 2026-05-06 13:30 | 58.93209 | 10.48896 | 11630 ft | 291 kts | 330° |
| 2026-05-06 13:30 | 58.95033 | 10.47200 | 11319 ft | 291 kts | 335° |
| 2026-05-06 13:30 | 58.97031 | 10.46496 | 10967 ft | 296 kts | 357° |
| 2026-05-06 13:31 | 58.99077 | 10.46487 | 10677 ft | 292 kts | 357° |
| 2026-05-06 13:31 | 59.01103 | 10.46457 | 10386 ft | 290 kts | 357° |
| 2026-05-06 13:31 | 59.03110 | 10.46440 | 10089 ft | 288 kts | 358° |
| 2026-05-06 13:31 | 59.05108 | 10.46429 | 9785 ft | 286 kts | 358° |
| 2026-05-06 13:32 | 59.07081 | 10.46421 | 9490 ft | 284 kts | 358° |
| 2026-05-06 13:32 | 59.09045 | 10.46416 | 9203 ft | 282 kts | 359° |
| 2026-05-06 13:32 | 59.11001 | 10.46413 | 8887 ft | 282 kts | 359° |
| 2026-05-06 13:32 | 59.12966 | 10.46405 | 8575 ft | 281 kts | 359° |
| 2026-05-06 13:33 | 59.14920 | 10.46399 | 8286 ft | 280 kts | 359° |
| 2026-05-06 13:33 | 59.16860 | 10.46393 | 8008 ft | 278 kts | 359° |
| 2026-05-06 13:33 | 59.18780 | 10.46356 | 7713 ft | 276 kts | 357° |
| 2026-05-06 13:33 | 59.20698 | 10.46253 | 7385 ft | 276 kts | 357° |
| 2026-05-06 13:34 | 59.22613 | 10.46155 | 7115 ft | 273 kts | 357° |
| 2026-05-06 13:34 | 59.24501 | 10.46059 | 6875 ft | 270 kts | 357° |
| 2026-05-06 13:34 | 59.26354 | 10.45970 | 6582 ft | 262 kts | 357° |
| 2026-05-06 13:34 | 59.28146 | 10.45899 | 6301 ft | 253 kts | 358° |
| 2026-05-06 13:35 | 59.29877 | 10.45871 | 6014 ft | 244 kts | 358° |
| 2026-05-06 13:35 | 59.31540 | 10.45838 | 5778 ft | 235 kts | 358° |
| 2026-05-06 13:35 | 59.33137 | 10.45811 | 5619 ft | 226 kts | 358° |
| 2026-05-06 13:35 | 59.34697 | 10.45780 | 5404 ft | 223 kts | 358° |
| 2026-05-06 13:36 | 59.36084 | 10.45747 | 5205 ft | 221 kts | 356° |
| 2026-05-06 13:36 | 59.37528 | 10.44975 | 4928 ft | 214 kts | 324° |
| 2026-05-06 13:36 | 59.38464 | 10.42896 | 4761 ft | 199 kts | 292° |
| 2026-05-06 13:36 | 59.38710 | 10.40335 | 4546 ft | 188 kts | 263° |
| 2026-05-06 13:37 | 59.38363 | 10.37937 | 4321 ft | 180 kts | 244° |
| 2026-05-06 13:37 | 59.37843 | 10.35744 | 4153 ft | 174 kts | 244° |
| 2026-05-06 13:37 | 59.37320 | 10.33639 | 3967 ft | 169 kts | 242° |
| 2026-05-06 13:37 | 59.36793 | 10.31584 | 3833 ft | 169 kts | 242° |
| 2026-05-06 13:38 | 59.36253 | 10.29527 | 3572 ft | 171 kts | 241° |
| 2026-05-06 13:38 | 59.35694 | 10.27489 | 3334 ft | 169 kts | 235° |
| 2026-05-06 13:38 | 59.34774 | 10.26156 | 3107 ft | 166 kts | 197° |
| 2026-05-06 13:38 | 59.33649 | 10.25751 | 2970 ft | 169 kts | 187° |
| 2026-05-06 13:39 | 59.32459 | 10.25601 | 2757 ft | 169 kts | 184° |
| 2026-05-06 13:39 | 59.31290 | 10.25557 | 2514 ft | 168 kts | 181° |
| 2026-05-06 13:39 | 59.30128 | 10.25569 | 2303 ft | 165 kts | 179° |
| 2026-05-06 13:39 | 59.29033 | 10.25598 | 2155 ft | 150 kts | 179° |
| 2026-05-06 13:40 | 59.28042 | 10.25623 | 1904 ft | 141 kts | 179° |
| 2026-05-06 13:40 | 59.27073 | 10.25634 | 1727 ft | 139 kts | 179° |
| 2026-05-06 13:40 | 59.26120 | 10.25665 | 1544 ft | 138 kts | 179° |
| 2026-05-06 13:40 | 59.25180 | 10.25689 | 1374 ft | 137 kts | 178° |
| 2026-05-06 13:41 | 59.24228 | 10.25717 | 1185 ft | 137 kts | 179° |
| 2026-05-06 13:41 | 59.23296 | 10.25743 | 1006 ft | 136 kts | 179° |
| 2026-05-06 13:41 | 59.22355 | 10.25768 | 801 ft | 135 kts | 179° |
| 2026-05-06 13:41 | 59.21439 | 10.25783 | 649 ft | 137 kts | 178° |
| 2026-05-06 13:42 | 59.20491 | 10.25831 | 450 ft | 136 kts | 179° |
| 2026-05-06 13:42 | 59.19565 | 10.25848 | 296 ft | 130 kts | 179° |
| 2026-05-06 13:42 | 59.18823 | 10.25860 | 281 ft | 74 kts | 179° |
| 2026-05-06 13:42 | 59.18521 | 10.25822 | 284 ft | 16 kts | 225° |
| 2026-05-06 13:43 | 59.18487 | 10.25729 | 281 ft | 7 kts | 232° |
| 2026-05-06 13:43 | 59.18451 | 10.25655 | 283 ft | 9 kts | 223° |
| 2026-05-06 13:43 | 59.18405 | 10.25582 | 283 ft | 11 kts | 202° |
| 2026-05-06 13:43 | 59.18329 | 10.25576 | 281 ft | 15 kts | 178° |
| 2026-05-06 13:44 | 59.18232 | 10.25579 | 281 ft | 15 kts | 180° |
| 2026-05-06 13:44 | 59.18150 | 10.25579 | 281 ft | 9 kts | 180° |
| 2026-05-06 13:44 | 59.18087 | 10.25534 | 285 ft | 14 kts | 210° |
| 2026-05-06 13:44 | 59.18064 | 10.25406 | 281 ft | 12 kts | 272° |
| 2026-05-06 13:45 | 59.18065 | 10.25358 | 281 ft | 0 kts | 272° |
| 2026-05-06 13:45 | 59.18057 | 10.25332 | 281 ft | 2 kts | 219° |
| 2026-05-06 13:45 | 59.18053 | 10.25331 | 284 ft | 1 kts | 193° |
| 2026-05-06 13:46 | 59.18024 | 10.25327 | 281 ft | 8 kts | 180° |
| 2026-05-06 13:46 | 59.18006 | 10.25328 | 282 ft | 0 kts | 179° |